SVMI/CCS METAR and TAF weather

Enter ICAO airport designator
Station Type Date Time Source
SVMI METAR 2021/03/05 19:00 UTC NOAA

SVMI 051900Z 07005KT 9999 BKN016 28/22 Q1011


Station Type Date Time Source
SVMI Decoded METAR 2021/03/05 19:00 UTC NOAA

Caracas / Maiquetia Aerop. Intl. Simon Bolivar, Venezuela (SVMI) 10-36N 066-59W 48M
Mar 05, 2021 - 02:00 PM EST / 2021.03.05 1900 UTC
Wind: from the ENE (070 degrees) at 6 MPH (5 KT):0
Visibility: greater than 7 mile(s):0
Sky conditions: mostly cloudy
Temperature: 82 F (28 C)
Dew Point: 71 F (22 C)
Relative Humidity: 69%
Pressure (altimeter): 29.85 in. Hg (1011 hPa)
ob: SVMI 051900Z 07005KT 9999 BKN016 28/22 Q1011
cycle: 19

Station Type Date Time Source
SVMI TAF 2021/03/05 18:04 UTC NOAA

TAF SVMI 051600Z 0518/0618 09006KT 9999 BKN016 TX32/0517Z TN23/0608Z
TEMPO 0518/0522 07006KT 9000 VCDZ BKN013
FM052300 09003KT 9999 SCT016 SCT060

Example: see airport list